Millville, NJ (08332)

12:17 PM EST on February 27, 2015 (GMT -0500)
South Millville | Change Station
CLOSE
Current Station
Personal Weather Station
Location: Millville, NJ
Elevation: 36 ft
Nearby Weather Stations

Elev 36 ft 39.38 °N, 75.02 °W | Updated 8 seconds ago

Overcast
Overcast
31.8 °F
Feels Like 29 °F
N
3.4
Wind Variable Wind from WNW
Gusts 5.4 mph

Today
High -- | Low -- °F
--% Chance of Precip.
Yesterday
High -- | Low -- °F
Precip. -- in
6:36 AM 5:50 PM
Waxing Gibbous, 70% visible
Pressure 30.40 in
Visibility 10.0 miles
Clouds Scattered Clouds 2800 ft
Windchill 29 °F
Dew Point 16 °F
Humidity 51%
Rainfall 0.00 in
Snow Depth Not available.
UV 5 out of 12
Pollen .50 out of 12
Air Quality Not available.
Flu Activity Not available.
METAR KMIV 271654Z AUTO 34010KT 10SM SCT028 M01/M08 A3040 RMK AO2 SLP295 T10111078

More Conditions Fewer Conditions

Pressure 30.40 in
Visibility 10.0 miles
Clouds Scattered Clouds 2800 ft
Windchill 29 °F
Dew Point 16 °F
Humidity 51%
Rainfall 0.00 in
Snow Depth Not available.
UV 5 out of 12
Pollen .50 out of 12
Air Quality Not available.
Flu Activity Not available.
METAR KMIV 271654Z AUTO 34010KT 10SM SCT028 M01/M08 A3040 RMK AO2 SLP295 T10111078

More Conditions Fewer Conditions

10-Day Weather Forecast

Almanac

Astronomy

Feb. 27, 2015 Rise Set
Actual Time
Civil Twilight
Nautical Twilight
Astronomical Twilight
Moon
Length of Visible Light
Length of Day
Tomorrow will be .
, % of the Moon is Illuminated

Today's Extremes

State Highs State Lows

Community

WunderPhotos

Upload Photos

1,800,746 photos uploaded!

WunderBlogs® & News

Nearby

Air Quality

  Air Quality AQ Index Pollutant
Not available.

Snow Depth

Station Depth Elevation

Earthquake Activity

City Distance Mag. Time & Date
Minimum magnitude displayed is 2.5.

Coastal Water Temperatures

Place Temperature

Nearby Weather Stations